Terminal Aerodrome Forecast
Issued by NWS

Home | Current Version | Previous Version | Text Only | Print | Product List | Glossary On
Versions: 1 2 3 4 5 6 7 8 9 10 11 12 13 14 15
792
FTUS44 KEPZ 051120
TAFTCS
TAF
KTCS 051120Z 0512/0612 30007KT P6SM SKC
     FM051500 VRB04KT P6SM SCT250
     FM052100 24013KT P6SM SCT250
     FM060400 31007KT P6SM BKN250=

USA.gov is the U.S. government's official web portal to all federal, state and local government web resources and services.